sensor_id;sensor_type;location;lat;lon;timestamp;P1;durP1;ratioP1;P2;durP2;ratioP2
43457;SDS011;29046;54.184;18.680;2023-11-18T00:00:31;21.55;;;11.90;;
43457;SDS011;29046;54.184;18.680;2023-11-18T00:03:19;23.00;;;12.13;;
43457;SDS011;29046;54.184;18.680;2023-11-18T00:05:47;20.67;;;10.48;;
43457;SDS011;29046;54.184;18.680;2023-11-18T00:08:15;29.02;;;13.65;;
43457;SDS011;29046;54.184;18.680;2023-11-18T00:10:42;26.48;;;13.27;;
43457;SDS011;29046;54.184;18.680;2023-11-18T00:13:10;29.60;;;14.07;;
43457;SDS011;29046;54.184;18.680;2023-11-18T00:15:38;29.27;;;12.60;;
43457;SDS011;29046;54.184;18.680;2023-11-18T00:18:05;26.95;;;12.52;;
43457;SDS011;29046;54.184;18.680;2023-11-18T00:20:33;20.67;;;11.13;;
43457;SDS011;29046;54.184;18.680;2023-11-18T00:23:02;26.98;;;13.07;;
43457;SDS011;29046;54.184;18.680;2023-11-18T00:25:32;25.50;;;12.43;;
43457;SDS011;29046;54.184;18.680;2023-11-18T00:28:02;27.08;;;12.50;;
43457;SDS011;29046;54.184;18.680;2023-11-18T00:30:30;23.48;;;12.35;;
43457;SDS011;29046;54.184;18.680;2023-11-18T00:32:58;23.92;;;12.25;;
43457;SDS011;29046;54.184;18.680;2023-11-18T00:35:26;25.05;;;12.27;;
43457;SDS011;29046;54.184;18.680;2023-11-18T00:37:53;28.60;;;12.98;;
43457;SDS011;29046;54.184;18.680;2023-11-18T00:40:21;25.40;;;11.45;;
43457;SDS011;29046;54.184;18.680;2023-11-18T00:42:49;24.42;;;12.27;;
43457;SDS011;29046;54.184;18.680;2023-11-18T00:45:17;28.38;;;12.88;;
43457;SDS011;29046;54.184;18.680;2023-11-18T00:47:44;19.75;;;11.55;;
43457;SDS011;29046;54.184;18.680;2023-11-18T00:50:12;22.10;;;10.40;;
43457;SDS011;29046;54.184;18.680;2023-11-18T00:52:40;32.10;;;12.50;;
43457;SDS011;29046;54.184;18.680;2023-11-18T00:55:08;36.83;;;12.00;;
43457;SDS011;29046;54.184;18.680;2023-11-18T00:57:37;24.27;;;11.45;;
43457;SDS011;29046;54.184;18.680;2023-11-18T01:00:10;19.88;;;10.20;;
43457;SDS011;29046;54.184;18.680;2023-11-18T01:02:41;17.73;;;10.93;;
43457;SDS011;29046;54.184;18.680;2023-11-18T01:05:09;22.83;;;11.07;;
43457;SDS011;29046;54.184;18.680;2023-11-18T01:07:38;22.80;;;10.60;;
43457;SDS011;29046;54.184;18.680;2023-11-18T01:10:06;21.30;;;10.70;;
43457;SDS011;29046;54.184;18.680;2023-11-18T01:12:34;18.70;;;9.73;;
43457;SDS011;29046;54.184;18.680;2023-11-18T01:15:02;19.90;;;9.18;;
43457;SDS011;29046;54.184;18.680;2023-11-18T01:17:30;15.90;;;10.07;;
43457;SDS011;29046;54.184;18.680;2023-11-18T01:19:58;20.33;;;10.82;;
43457;SDS011;29046;54.184;18.680;2023-11-18T01:22:27;21.02;;;9.65;;
43457;SDS011;29046;54.184;18.680;2023-11-18T01:24:56;16.95;;;9.30;;
43457;SDS011;29046;54.184;18.680;2023-11-18T01:27:24;15.70;;;9.38;;
43457;SDS011;29046;54.184;18.680;2023-11-18T01:29:52;16.95;;;8.93;;
43457;SDS011;29046;54.184;18.680;2023-11-18T01:32:20;17.45;;;8.73;;
43457;SDS011;29046;54.184;18.680;2023-11-18T01:34:48;16.02;;;8.32;;
43457;SDS011;29046;54.184;18.680;2023-11-18T01:37:17;17.58;;;7.82;;
43457;SDS011;29046;54.184;18.680;2023-11-18T01:39:45;14.07;;;6.85;;
43457;SDS011;29046;54.184;18.680;2023-11-18T01:42:12;15.48;;;7.72;;
43457;SDS011;29046;54.184;18.680;2023-11-18T01:44:40;14.60;;;6.82;;
43457;SDS011;29046;54.184;18.680;2023-11-18T01:47:07;14.02;;;6.15;;
43457;SDS011;29046;54.184;18.680;2023-11-18T01:49:39;13.85;;;5.95;;
43457;SDS011;29046;54.184;18.680;2023-11-18T01:52:07;11.45;;;6.13;;
43457;SDS011;29046;54.184;18.680;2023-11-18T01:54:36;16.23;;;7.60;;
43457;SDS011;29046;54.184;18.680;2023-11-18T01:57:04;12.05;;;6.45;;
43457;SDS011;29046;54.184;18.680;2023-11-18T01:59:36;11.15;;;6.60;;
43457;SDS011;29046;54.184;18.680;2023-11-18T02:02:04;11.43;;;6.15;;
43457;SDS011;29046;54.184;18.680;2023-11-18T02:04:32;13.50;;;6.60;;
43457;SDS011;29046;54.184;18.680;2023-11-18T02:07:00;12.90;;;6.75;;
43457;SDS011;29046;54.184;18.680;2023-11-18T02:09:31;11.40;;;7.40;;
43457;SDS011;29046;54.184;18.680;2023-11-18T02:14:44;10.63;;;6.28;;
43457;SDS011;29046;54.184;18.680;2023-11-18T02:17:14;13.43;;;6.18;;
43457;SDS011;29046;54.184;18.680;2023-11-18T02:19:42;13.30;;;6.32;;
43457;SDS011;29046;54.184;18.680;2023-11-18T02:22:11;10.88;;;6.22;;
43457;SDS011;29046;54.184;18.680;2023-11-18T02:24:39;11.43;;;7.03;;
43457;SDS011;29046;54.184;18.680;2023-11-18T02:27:08;14.88;;;6.32;;
43457;SDS011;29046;54.184;18.680;2023-11-18T02:29:44;12.35;;;6.25;;
43457;SDS011;29046;54.184;18.680;2023-11-18T02:34:45;12.05;;;5.97;;
43457;SDS011;29046;54.184;18.680;2023-11-18T02:37:18;11.32;;;6.88;;
43457;SDS011;29046;54.184;18.680;2023-11-18T02:39:45;11.60;;;6.35;;
43457;SDS011;29046;54.184;18.680;2023-11-18T02:42:16;10.85;;;5.43;;
43457;SDS011;29046;54.184;18.680;2023-11-18T02:44:43;12.18;;;6.38;;
43457;SDS011;29046;54.184;18.680;2023-11-18T02:47:11;10.38;;;5.18;;
43457;SDS011;29046;54.184;18.680;2023-11-18T02:49:39;9.57;;;6.18;;
43457;SDS011;29046;54.184;18.680;2023-11-18T02:52:07;12.90;;;6.53;;
43457;SDS011;29046;54.184;18.680;2023-11-18T02:54:36;9.95;;;5.63;;
43457;SDS011;29046;54.184;18.680;2023-11-18T02:57:04;10.25;;;5.45;;
43457;SDS011;29046;54.184;18.680;2023-11-18T02:59:32;13.77;;;6.60;;
43457;SDS011;29046;54.184;18.680;2023-11-18T03:01:59;14.95;;;6.25;;
43457;SDS011;29046;54.184;18.680;2023-11-18T03:04:28;11.73;;;6.47;;
43457;SDS011;29046;54.184;18.680;2023-11-18T03:06:55;9.98;;;5.72;;
43457;SDS011;29046;54.184;18.680;2023-11-18T03:09:23;10.07;;;5.57;;
43457;SDS011;29046;54.184;18.680;2023-11-18T03:11:54;11.90;;;6.68;;
43457;SDS011;29046;54.184;18.680;2023-11-18T03:14:22;12.40;;;6.38;;
43457;SDS011;29046;54.184;18.680;2023-11-18T03:16:49;11.13;;;6.10;;
43457;SDS011;29046;54.184;18.680;2023-11-18T03:19:17;11.05;;;5.53;;
43457;SDS011;29046;54.184;18.680;2023-11-18T03:21:50;12.85;;;6.32;;
43457;SDS011;29046;54.184;18.680;2023-11-18T03:24:20;10.13;;;5.88;;
43457;SDS011;29046;54.184;18.680;2023-11-18T03:26:47;10.30;;;6.07;;
43457;SDS011;29046;54.184;18.680;2023-11-18T03:29:16;10.65;;;5.93;;
43457;SDS011;29046;54.184;18.680;2023-11-18T03:31:43;10.50;;;5.55;;
43457;SDS011;29046;54.184;18.680;2023-11-18T03:34:15;11.60;;;5.93;;
43457;SDS011;29046;54.184;18.680;2023-11-18T03:36:44;10.50;;;5.38;;
43457;SDS011;29046;54.184;18.680;2023-11-18T03:39:13;10.48;;;5.35;;
43457;SDS011;29046;54.184;18.680;2023-11-18T03:41:41;11.32;;;6.07;;
43457;SDS011;29046;54.184;18.680;2023-11-18T03:44:14;12.15;;;6.40;;
43457;SDS011;29046;54.184;18.680;2023-11-18T03:46:41;8.52;;;5.07;;
43457;SDS011;29046;54.184;18.680;2023-11-18T03:49:09;9.77;;;5.65;;
43457;SDS011;29046;54.184;18.680;2023-11-18T03:51:37;10.63;;;6.53;;
43457;SDS011;29046;54.184;18.680;2023-11-18T03:54:05;11.60;;;6.88;;
43457;SDS011;29046;54.184;18.680;2023-11-18T03:56:35;11.70;;;6.43;;
43457;SDS011;29046;54.184;18.680;2023-11-18T03:59:02;11.40;;;6.55;;
43457;SDS011;29046;54.184;18.680;2023-11-18T04:01:31;10.43;;;6.13;;
43457;SDS011;29046;54.184;18.680;2023-11-18T04:04:00;10.13;;;6.03;;
43457;SDS011;29046;54.184;18.680;2023-11-18T04:06:27;10.98;;;6.28;;
43457;SDS011;29046;54.184;18.680;2023-11-18T04:08:55;13.23;;;7.10;;
43457;SDS011;29046;54.184;18.680;2023-11-18T04:11:23;18.08;;;7.50;;
43457;SDS011;29046;54.184;18.680;2023-11-18T04:13:50;16.38;;;8.25;;
43457;SDS011;29046;54.184;18.680;2023-11-18T04:16:19;18.88;;;9.07;;
43457;SDS011;29046;54.184;18.680;2023-11-18T04:18:47;21.02;;;9.15;;
43457;SDS011;29046;54.184;18.680;2023-11-18T04:21:14;20.92;;;7.93;;
43457;SDS011;29046;54.184;18.680;2023-11-18T04:23:42;16.73;;;5.90;;
43457;SDS011;29046;54.184;18.680;2023-11-18T04:26:13;13.88;;;7.55;;
43457;SDS011;29046;54.184;18.680;2023-11-18T04:28:41;14.80;;;7.88;;
43457;SDS011;29046;54.184;18.680;2023-11-18T04:31:08;30.35;;;12.57;;
43457;SDS011;29046;54.184;18.680;2023-11-18T04:33:38;21.08;;;10.02;;
43457;SDS011;29046;54.184;18.680;2023-11-18T04:36:07;18.40;;;9.77;;
43457;SDS011;29046;54.184;18.680;2023-11-18T04:38:36;20.13;;;9.02;;
43457;SDS011;29046;54.184;18.680;2023-11-18T04:41:04;15.65;;;8.65;;
43457;SDS011;29046;54.184;18.680;2023-11-18T04:43:33;16.13;;;8.02;;
43457;SDS011;29046;54.184;18.680;2023-11-18T04:46:11;19.23;;;9.18;;
43457;SDS011;29046;54.184;18.680;2023-11-18T04:48:38;14.35;;;7.30;;
43457;SDS011;29046;54.184;18.680;2023-11-18T04:51:08;16.17;;;7.57;;
43457;SDS011;29046;54.184;18.680;2023-11-18T04:53:36;16.45;;;7.30;;
43457;SDS011;29046;54.184;18.680;2023-11-18T04:56:04;17.40;;;7.75;;
43457;SDS011;29046;54.184;18.680;2023-11-18T04:58:33;15.27;;;8.23;;
43457;SDS011;29046;54.184;18.680;2023-11-18T05:01:01;13.02;;;7.95;;
43457;SDS011;29046;54.184;18.680;2023-11-18T05:03:29;17.77;;;8.63;;
43457;SDS011;29046;54.184;18.680;2023-11-18T05:05:57;16.40;;;8.52;;
43457;SDS011;29046;54.184;18.680;2023-11-18T05:08:24;15.38;;;7.72;;
43457;SDS011;29046;54.184;18.680;2023-11-18T05:10:52;13.98;;;7.32;;
43457;SDS011;29046;54.184;18.680;2023-11-18T05:13:21;25.05;;;11.98;;
43457;SDS011;29046;54.184;18.680;2023-11-18T05:15:49;20.23;;;11.20;;
43457;SDS011;29046;54.184;18.680;2023-11-18T05:18:17;13.75;;;7.60;;
43457;SDS011;29046;54.184;18.680;2023-11-18T05:20:44;15.88;;;8.40;;
43457;SDS011;29046;54.184;18.680;2023-11-18T05:23:13;14.63;;;8.40;;
43457;SDS011;29046;54.184;18.680;2023-11-18T05:25:41;17.15;;;9.52;;
43457;SDS011;29046;54.184;18.680;2023-11-18T05:28:13;13.95;;;8.15;;
43457;SDS011;29046;54.184;18.680;2023-11-18T05:30:41;17.55;;;9.20;;
43457;SDS011;29046;54.184;18.680;2023-11-18T05:33:12;31.13;;;13.68;;
43457;SDS011;29046;54.184;18.680;2023-11-18T05:35:44;25.33;;;12.80;;
43457;SDS011;29046;54.184;18.680;2023-11-18T05:38:17;33.40;;;16.63;;
43457;SDS011;29046;54.184;18.680;2023-11-18T05:40:48;28.73;;;15.27;;
43457;SDS011;29046;54.184;18.680;2023-11-18T05:43:32;23.35;;;12.05;;
43457;SDS011;29046;54.184;18.680;2023-11-18T05:46:06;22.38;;;11.77;;
43457;SDS011;29046;54.184;18.680;2023-11-18T05:48:55;24.38;;;12.77;;
43457;SDS011;29046;54.184;18.680;2023-11-18T05:51:23;26.00;;;11.23;;
43457;SDS011;29046;54.184;18.680;2023-11-18T05:53:52;14.90;;;8.13;;
43457;SDS011;29046;54.184;18.680;2023-11-18T05:56:20;17.58;;;8.60;;
43457;SDS011;29046;54.184;18.680;2023-11-18T05:58:52;13.20;;;7.53;;
43457;SDS011;29046;54.184;18.680;2023-11-18T06:01:20;14.00;;;7.25;;
43457;SDS011;29046;54.184;18.680;2023-11-18T06:03:49;15.07;;;7.85;;
43457;SDS011;29046;54.184;18.680;2023-11-18T06:06:17;14.70;;;6.80;;
43457;SDS011;29046;54.184;18.680;2023-11-18T06:08:50;11.98;;;7.05;;
43457;SDS011;29046;54.184;18.680;2023-11-18T06:11:18;13.13;;;6.75;;
43457;SDS011;29046;54.184;18.680;2023-11-18T06:13:47;13.18;;;6.88;;
43457;SDS011;29046;54.184;18.680;2023-11-18T06:16:16;13.32;;;7.05;;
43457;SDS011;29046;54.184;18.680;2023-11-18T06:18:48;9.77;;;6.15;;
43457;SDS011;29046;54.184;18.680;2023-11-18T06:21:19;12.27;;;6.25;;
43457;SDS011;29046;54.184;18.680;2023-11-18T06:23:47;13.27;;;6.82;;
43457;SDS011;29046;54.184;18.680;2023-11-18T06:26:15;11.93;;;6.93;;
43457;SDS011;29046;54.184;18.680;2023-11-18T06:28:43;11.02;;;7.15;;
43457;SDS011;29046;54.184;18.680;2023-11-18T06:31:11;13.50;;;7.05;;
43457;SDS011;29046;54.184;18.680;2023-11-18T06:33:41;13.98;;;8.27;;
43457;SDS011;29046;54.184;18.680;2023-11-18T06:38:41;17.52;;;10.35;;
43457;SDS011;29046;54.184;18.680;2023-11-18T06:41:10;16.02;;;8.70;;
43457;SDS011;29046;54.184;18.680;2023-11-18T06:46:30;15.90;;;9.50;;
43457;SDS011;29046;54.184;18.680;2023-11-18T06:49:03;12.70;;;7.53;;
43457;SDS011;29046;54.184;18.680;2023-11-18T06:51:31;17.27;;;8.75;;
43457;SDS011;29046;54.184;18.680;2023-11-18T06:54:04;18.03;;;8.97;;
43457;SDS011;29046;54.184;18.680;2023-11-18T06:56:37;14.25;;;7.32;;
43457;SDS011;29046;54.184;18.680;2023-11-18T06:59:05;13.35;;;8.23;;
43457;SDS011;29046;54.184;18.680;2023-11-18T07:01:34;17.63;;;9.57;;
43457;SDS011;29046;54.184;18.680;2023-11-18T07:04:03;23.45;;;10.35;;
43457;SDS011;29046;54.184;18.680;2023-11-18T07:06:31;22.08;;;9.75;;
43457;SDS011;29046;54.184;18.680;2023-11-18T07:08:59;15.25;;;9.02;;
43457;SDS011;29046;54.184;18.680;2023-11-18T07:11:27;17.15;;;8.68;;
43457;SDS011;29046;54.184;18.680;2023-11-18T07:13:55;17.75;;;8.73;;
43457;SDS011;29046;54.184;18.680;2023-11-18T07:16:23;18.10;;;8.93;;
43457;SDS011;29046;54.184;18.680;2023-11-18T07:18:52;13.85;;;7.80;;
43457;SDS011;29046;54.184;18.680;2023-11-18T07:21:20;17.40;;;7.93;;
43457;SDS011;29046;54.184;18.680;2023-11-18T07:23:48;14.18;;;7.43;;
43457;SDS011;29046;54.184;18.680;2023-11-18T07:26:15;18.02;;;9.43;;
43457;SDS011;29046;54.184;18.680;2023-11-18T07:28:43;23.65;;;10.30;;
43457;SDS011;29046;54.184;18.680;2023-11-18T07:31:11;20.15;;;10.35;;
43457;SDS011;29046;54.184;18.680;2023-11-18T07:33:39;20.50;;;11.45;;
43457;SDS011;29046;54.184;18.680;2023-11-18T07:36:10;29.80;;;14.77;;
43457;SDS011;29046;54.184;18.680;2023-11-18T07:38:38;38.95;;;18.23;;
43457;SDS011;29046;54.184;18.680;2023-11-18T07:41:06;71.88;;;27.70;;
43457;SDS011;29046;54.184;18.680;2023-11-18T07:43:35;123.22;;;42.78;;
43457;SDS011;29046;54.184;18.680;2023-11-18T07:46:03;89.65;;;34.17;;
43457;SDS011;29046;54.184;18.680;2023-11-18T07:48:34;77.75;;;30.08;;
43457;SDS011;29046;54.184;18.680;2023-11-18T07:51:02;55.85;;;26.23;;
43457;SDS011;29046;54.184;18.680;2023-11-18T07:53:30;46.88;;;21.60;;
43457;SDS011;29046;54.184;18.680;2023-11-18T07:55:58;48.60;;;22.83;;
43457;SDS011;29046;54.184;18.680;2023-11-18T07:58:28;46.13;;;19.45;;
43457;SDS011;29046;54.184;18.680;2023-11-18T08:00:58;32.20;;;15.10;;
43457;SDS011;29046;54.184;18.680;2023-11-18T08:03:27;39.78;;;16.10;;
43457;SDS011;29046;54.184;18.680;2023-11-18T08:05:54;34.58;;;16.30;;
43457;SDS011;29046;54.184;18.680;2023-11-18T08:08:22;31.85;;;15.02;;
43457;SDS011;29046;54.184;18.680;2023-11-18T08:10:50;32.88;;;16.85;;
43457;SDS011;29046;54.184;18.680;2023-11-18T08:13:17;26.67;;;9.55;;
43457;SDS011;29046;54.184;18.680;2023-11-18T08:15:45;21.05;;;11.13;;
43457;SDS011;29046;54.184;18.680;2023-11-18T08:18:13;18.45;;;9.48;;
43457;SDS011;29046;54.184;18.680;2023-11-18T08:20:41;14.27;;;7.75;;
43457;SDS011;29046;54.184;18.680;2023-11-18T08:23:10;18.58;;;9.50;;
43457;SDS011;29046;54.184;18.680;2023-11-18T08:25:38;16.60;;;8.02;;
43457;SDS011;29046;54.184;18.680;2023-11-18T08:28:07;15.25;;;7.97;;
43457;SDS011;29046;54.184;18.680;2023-11-18T08:30:37;15.70;;;8.85;;
43457;SDS011;29046;54.184;18.680;2023-11-18T08:33:06;13.13;;;8.55;;
43457;SDS011;29046;54.184;18.680;2023-11-18T08:35:36;17.35;;;8.60;;
43457;SDS011;29046;54.184;18.680;2023-11-18T08:38:04;12.77;;;6.85;;
43457;SDS011;29046;54.184;18.680;2023-11-18T08:40:34;14.32;;;8.30;;
43457;SDS011;29046;54.184;18.680;2023-11-18T08:43:03;16.55;;;9.85;;
43457;SDS011;29046;54.184;18.680;2023-11-18T08:45:34;23.10;;;10.95;;
43457;SDS011;29046;54.184;18.680;2023-11-18T08:48:04;17.10;;;11.73;;
43457;SDS011;29046;54.184;18.680;2023-11-18T08:50:35;24.88;;;12.82;;
43457;SDS011;29046;54.184;18.680;2023-11-18T08:53:06;22.48;;;15.18;;
43457;SDS011;29046;54.184;18.680;2023-11-18T08:55:37;21.95;;;13.88;;
43457;SDS011;29046;54.184;18.680;2023-11-18T08:58:11;20.88;;;11.30;;
43457;SDS011;29046;54.184;18.680;2023-11-18T09:00:52;21.90;;;12.73;;
43457;SDS011;29046;54.184;18.680;2023-11-18T09:03:32;21.45;;;10.02;;
43457;SDS011;29046;54.184;18.680;2023-11-18T09:06:04;20.02;;;11.05;;
43457;SDS011;29046;54.184;18.680;2023-11-18T09:08:34;23.65;;;10.15;;
43457;SDS011;29046;54.184;18.680;2023-11-18T09:11:02;17.50;;;9.70;;
43457;SDS011;29046;54.184;18.680;2023-11-18T09:13:34;16.05;;;8.68;;
43457;SDS011;29046;54.184;18.680;2023-11-18T09:16:02;16.00;;;9.25;;
43457;SDS011;29046;54.184;18.680;2023-11-18T09:18:31;18.35;;;9.80;;
43457;SDS011;29046;54.184;18.680;2023-11-18T09:21:01;19.48;;;10.85;;
43457;SDS011;29046;54.184;18.680;2023-11-18T09:23:30;17.33;;;10.07;;
43457;SDS011;29046;54.184;18.680;2023-11-18T09:25:58;16.60;;;9.77;;
43457;SDS011;29046;54.184;18.680;2023-11-18T09:28:26;17.92;;;9.75;;
43457;SDS011;29046;54.184;18.680;2023-11-18T09:30:57;15.60;;;8.10;;
43457;SDS011;29046;54.184;18.680;2023-11-18T09:33:25;18.13;;;9.63;;
43457;SDS011;29046;54.184;18.680;2023-11-18T09:35:55;14.07;;;8.57;;
43457;SDS011;29046;54.184;18.680;2023-11-18T09:38:30;18.67;;;10.30;;
43457;SDS011;29046;54.184;18.680;2023-11-18T09:40:58;19.40;;;10.57;;
43457;SDS011;29046;54.184;18.680;2023-11-18T09:43:38;17.10;;;10.32;;
43457;SDS011;29046;54.184;18.680;2023-11-18T09:48:43;19.20;;;10.48;;
43457;SDS011;29046;54.184;18.680;2023-11-18T09:51:21;19.57;;;10.80;;
43457;SDS011;29046;54.184;18.680;2023-11-18T09:53:49;21.15;;;12.25;;
43457;SDS011;29046;54.184;18.680;2023-11-18T09:59:13;15.02;;;8.25;;
43457;SDS011;29046;54.184;18.680;2023-11-18T10:01:49;9.48;;;5.50;;
43457;SDS011;29046;54.184;18.680;2023-11-18T10:04:20;10.35;;;6.20;;
43457;SDS011;29046;54.184;18.680;2023-11-18T10:06:48;18.45;;;9.13;;
43457;SDS011;29046;54.184;18.680;2023-11-18T10:09:20;10.48;;;6.50;;
43457;SDS011;29046;54.184;18.680;2023-11-18T10:11:55;15.68;;;8.32;;
43457;SDS011;29046;54.184;18.680;2023-11-18T10:14:27;10.63;;;5.90;;
43457;SDS011;29046;54.184;18.680;2023-11-18T10:16:56;14.88;;;8.88;;
43457;SDS011;29046;54.184;18.680;2023-11-18T10:19:24;11.00;;;6.85;;
43457;SDS011;29046;54.184;18.680;2023-11-18T10:21:52;12.27;;;7.35;;
43457;SDS011;29046;54.184;18.680;2023-11-18T10:24:23;12.57;;;6.13;;
43457;SDS011;29046;54.184;18.680;2023-11-18T10:26:55;17.92;;;6.82;;
43457;SDS011;29046;54.184;18.680;2023-11-18T10:29:26;14.95;;;8.10;;
43457;SDS011;29046;54.184;18.680;2023-11-18T10:32:06;10.68;;;6.65;;
43457;SDS011;29046;54.184;18.680;2023-11-18T10:34:36;12.18;;;6.88;;
43457;SDS011;29046;54.184;18.680;2023-11-18T10:37:04;12.13;;;6.93;;
43457;SDS011;29046;54.184;18.680;2023-11-18T10:39:33;17.63;;;7.95;;
43457;SDS011;29046;54.184;18.680;2023-11-18T10:42:02;14.82;;;7.57;;
43457;SDS011;29046;54.184;18.680;2023-11-18T10:44:30;16.63;;;7.07;;
43457;SDS011;29046;54.184;18.680;2023-11-18T10:46:58;11.80;;;7.47;;
43457;SDS011;29046;54.184;18.680;2023-11-18T10:49:26;14.63;;;9.02;;
43457;SDS011;29046;54.184;18.680;2023-11-18T10:51:55;18.58;;;9.48;;
43457;SDS011;29046;54.184;18.680;2023-11-18T10:54:23;15.57;;;8.55;;
43457;SDS011;29046;54.184;18.680;2023-11-18T10:56:53;16.75;;;9.70;;
43457;SDS011;29046;54.184;18.680;2023-11-18T10:59:24;13.40;;;8.13;;
43457;SDS011;29046;54.184;18.680;2023-11-18T11:01:53;26.63;;;12.27;;
43457;SDS011;29046;54.184;18.680;2023-11-18T11:04:25;25.70;;;12.90;;
43457;SDS011;29046;54.184;18.680;2023-11-18T11:06:52;23.77;;;11.60;;
43457;SDS011;29046;54.184;18.680;2023-11-18T11:09:21;13.57;;;8.13;;
43457;SDS011;29046;54.184;18.680;2023-11-18T11:14:22;12.73;;;7.78;;
43457;SDS011;29046;54.184;18.680;2023-11-18T11:17:05;18.30;;;8.95;;
43457;SDS011;29046;54.184;18.680;2023-11-18T11:22:38;15.88;;;8.45;;
43457;SDS011;29046;54.184;18.680;2023-11-18T11:27:42;18.40;;;9.23;;
43457;SDS011;29046;54.184;18.680;2023-11-18T11:30:38;11.68;;;6.15;;
43457;SDS011;29046;54.184;18.680;2023-11-18T11:33:19;12.27;;;4.85;;
43457;SDS011;29046;54.184;18.680;2023-11-18T11:35:51;14.40;;;7.97;;
43457;SDS011;29046;54.184;18.680;2023-11-18T11:38:24;12.07;;;7.55;;
43457;SDS011;29046;54.184;18.680;2023-11-18T11:40:54;13.70;;;7.25;;
43457;SDS011;29046;54.184;18.680;2023-11-18T11:43:21;12.00;;;7.00;;
43457;SDS011;29046;54.184;18.680;2023-11-18T11:45:51;10.43;;;6.35;;
43457;SDS011;29046;54.184;18.680;2023-11-18T11:48:24;15.25;;;7.57;;
43457;SDS011;29046;54.184;18.680;2023-11-18T11:53:24;15.15;;;8.13;;
43457;SDS011;29046;54.184;18.680;2023-11-18T11:55:54;15.70;;;7.55;;
43457;SDS011;29046;54.184;18.680;2023-11-18T11:58:35;12.15;;;6.47;;
43457;SDS011;29046;54.184;18.680;2023-11-18T12:03:54;12.35;;;6.85;;
43457;SDS011;29046;54.184;18.680;2023-11-18T12:06:26;13.50;;;6.45;;
43457;SDS011;29046;54.184;18.680;2023-11-18T12:08:54;12.25;;;6.75;;
43457;SDS011;29046;54.184;18.680;2023-11-18T12:11:23;18.17;;;8.15;;
43457;SDS011;29046;54.184;18.680;2023-11-18T12:14:00;17.83;;;7.55;;
43457;SDS011;29046;54.184;18.680;2023-11-18T12:19:30;25.13;;;10.88;;
43457;SDS011;29046;54.184;18.680;2023-11-18T12:22:15;25.40;;;9.27;;
43457;SDS011;29046;54.184;18.680;2023-11-18T12:32:57;13.57;;;7.45;;
43457;SDS011;29046;54.184;18.680;2023-11-18T12:35:25;13.13;;;6.35;;
43457;SDS011;29046;54.184;18.680;2023-11-18T12:40:53;8.75;;;5.35;;
43457;SDS011;29046;54.184;18.680;2023-11-18T12:43:55;12.43;;;6.45;;
43457;SDS011;29046;54.184;18.680;2023-11-18T12:49:14;13.00;;;6.03;;
43457;SDS011;29046;54.184;18.680;2023-11-18T12:51:51;10.68;;;5.10;;
43457;SDS011;29046;54.184;18.680;2023-11-18T12:54:19;11.63;;;5.63;;
43457;SDS011;29046;54.184;18.680;2023-11-18T12:56:51;18.65;;;6.78;;
43457;SDS011;29046;54.184;18.680;2023-11-18T12:59:21;13.25;;;6.50;;
43457;SDS011;29046;54.184;18.680;2023-11-18T13:01:50;12.98;;;6.05;;
43457;SDS011;29046;54.184;18.680;2023-11-18T13:04:24;12.93;;;5.93;;
43457;SDS011;29046;54.184;18.680;2023-11-18T13:06:54;10.27;;;6.30;;
43457;SDS011;29046;54.184;18.680;2023-11-18T13:09:22;12.18;;;6.78;;
43457;SDS011;29046;54.184;18.680;2023-11-18T13:11:55;14.68;;;6.90;;
43457;SDS011;29046;54.184;18.680;2023-11-18T13:14:28;11.50;;;6.25;;
43457;SDS011;29046;54.184;18.680;2023-11-18T13:17:03;10.48;;;6.25;;
43457;SDS011;29046;54.184;18.680;2023-11-18T13:19:35;13.60;;;6.75;;
43457;SDS011;29046;54.184;18.680;2023-11-18T13:22:04;15.40;;;7.72;;
43457;SDS011;29046;54.184;18.680;2023-11-18T13:27:07;17.83;;;8.23;;
43457;SDS011;29046;54.184;18.680;2023-11-18T13:29:36;18.95;;;9.68;;
43457;SDS011;29046;54.184;18.680;2023-11-18T13:32:11;13.40;;;7.68;;
43457;SDS011;29046;54.184;18.680;2023-11-18T13:34:39;16.85;;;7.00;;
43457;SDS011;29046;54.184;18.680;2023-11-18T13:37:09;13.32;;;7.40;;
43457;SDS011;29046;54.184;18.680;2023-11-18T13:39:39;14.35;;;7.13;;
43457;SDS011;29046;54.184;18.680;2023-11-18T13:42:18;15.63;;;7.88;;
43457;SDS011;29046;54.184;18.680;2023-11-18T13:44:46;12.90;;;6.80;;
43457;SDS011;29046;54.184;18.680;2023-11-18T13:47:17;11.15;;;6.88;;
43457;SDS011;29046;54.184;18.680;2023-11-18T13:49:48;13.68;;;8.05;;
43457;SDS011;29046;54.184;18.680;2023-11-18T13:52:17;11.95;;;6.43;;
43457;SDS011;29046;54.184;18.680;2023-11-18T13:54:46;24.00;;;9.70;;
43457;SDS011;29046;54.184;18.680;2023-11-18T13:57:14;14.70;;;8.10;;
43457;SDS011;29046;54.184;18.680;2023-11-18T13:59:43;15.60;;;8.07;;
43457;SDS011;29046;54.184;18.680;2023-11-18T14:02:12;15.13;;;8.68;;
43457;SDS011;29046;54.184;18.680;2023-11-18T14:04:40;18.23;;;8.65;;
43457;SDS011;29046;54.184;18.680;2023-11-18T14:07:13;20.02;;;7.72;;
43457;SDS011;29046;54.184;18.680;2023-11-18T14:09:43;13.85;;;7.22;;
43457;SDS011;29046;54.184;18.680;2023-11-18T14:12:12;19.23;;;7.18;;
43457;SDS011;29046;54.184;18.680;2023-11-18T14:14:41;17.52;;;6.75;;
43457;SDS011;29046;54.184;18.680;2023-11-18T14:17:08;14.10;;;6.97;;
43457;SDS011;29046;54.184;18.680;2023-11-18T14:19:39;9.68;;;5.70;;
43457;SDS011;29046;54.184;18.680;2023-11-18T14:22:08;14.57;;;8.23;;
43457;SDS011;29046;54.184;18.680;2023-11-18T14:24:36;15.82;;;7.65;;
43457;SDS011;29046;54.184;18.680;2023-11-18T14:27:05;15.70;;;8.02;;
43457;SDS011;29046;54.184;18.680;2023-11-18T14:29:37;23.63;;;10.18;;
43457;SDS011;29046;54.184;18.680;2023-11-18T14:32:05;15.25;;;7.20;;
43457;SDS011;29046;54.184;18.680;2023-11-18T14:34:33;19.27;;;9.45;;
43457;SDS011;29046;54.184;18.680;2023-11-18T14:37:01;16.27;;;7.05;;
43457;SDS011;29046;54.184;18.680;2023-11-18T14:39:28;17.90;;;7.63;;
43457;SDS011;29046;54.184;18.680;2023-11-18T14:41:56;21.20;;;8.13;;
43457;SDS011;29046;54.184;18.680;2023-11-18T14:44:24;21.08;;;10.88;;
43457;SDS011;29046;54.184;18.680;2023-11-18T14:46:52;24.63;;;11.00;;
43457;SDS011;29046;54.184;18.680;2023-11-18T14:49:22;24.77;;;13.38;;
43457;SDS011;29046;54.184;18.680;2023-11-18T14:51:49;14.52;;;7.60;;
43457;SDS011;29046;54.184;18.680;2023-11-18T14:54:17;23.10;;;11.88;;
43457;SDS011;29046;54.184;18.680;2023-11-18T14:56:45;24.40;;;12.32;;
43457;SDS011;29046;54.184;18.680;2023-11-18T14:59:16;20.73;;;10.70;;
43457;SDS011;29046;54.184;18.680;2023-11-18T15:01:43;27.05;;;12.80;;
43457;SDS011;29046;54.184;18.680;2023-11-18T15:04:15;17.95;;;9.15;;
43457;SDS011;29046;54.184;18.680;2023-11-18T15:06:43;29.23;;;13.57;;
43457;SDS011;29046;54.184;18.680;2023-11-18T15:09:12;27.58;;;12.55;;
43457;SDS011;29046;54.184;18.680;2023-11-18T15:11:40;26.00;;;13.27;;
43457;SDS011;29046;54.184;18.680;2023-11-18T15:14:08;13.05;;;5.78;;
43457;SDS011;29046;54.184;18.680;2023-11-18T15:16:38;27.08;;;12.43;;
43457;SDS011;29046;54.184;18.680;2023-11-18T15:19:06;26.45;;;12.05;;
43457;SDS011;29046;54.184;18.680;2023-11-18T15:21:33;31.45;;;15.25;;